createdAt,value
2023-05-07T00:01:00.455Z,16.93
2023-05-07T00:03:28.302Z,15.73
2023-05-07T00:05:55.813Z,17.50
2023-05-07T00:08:24.471Z,20.40
2023-05-07T00:10:51.911Z,13.97
2023-05-07T00:13:19.394Z,15.20
2023-05-07T00:15:46.761Z,13.23
2023-05-07T00:18:14.103Z,10.20
2023-05-07T00:20:41.458Z,13.77
2023-05-07T00:23:08.810Z,12.03
2023-05-07T00:25:37.460Z,9.80
2023-05-07T00:28:05.037Z,13.63
2023-05-07T00:30:32.397Z,13.43
2023-05-07T00:33:00.389Z,11.93
2023-05-07T00:35:27.796Z,13.87
2023-05-07T00:37:56.045Z,10.80
2023-05-07T00:40:23.584Z,12.97
2023-05-07T00:42:57.670Z,15.40
2023-05-07T00:45:27.973Z,17.63
2023-05-07T00:47:56.132Z,17.63
2023-05-07T00:50:23.956Z,15.57
2023-05-07T00:52:51.615Z,16.90
2023-05-07T00:55:19.491Z,16.33
2023-05-07T00:57:47.067Z,14.77
2023-05-07T01:00:16.183Z,16.53
2023-05-07T01:02:44.360Z,16.43
2023-05-07T01:05:13.630Z,14.67
2023-05-07T01:07:42.281Z,13.57
2023-05-07T01:10:10.798Z,13.97
2023-05-07T01:12:39.032Z,12.20
2023-05-07T01:15:07.348Z,14.33
2023-05-07T01:17:36.732Z,14.60
2023-05-07T01:20:06.030Z,14.20
2023-05-07T01:22:35.282Z,12.87
2023-05-07T01:25:03.442Z,14.70
2023-05-07T01:27:34.146Z,15.83
2023-05-07T01:30:01.642Z,15.17
2023-05-07T01:32:30.986Z,17.23
2023-05-07T01:34:59.468Z,15.20
2023-05-07T01:37:27.736Z,17.27
2023-05-07T01:39:56.553Z,16.23
2023-05-07T01:42:24.010Z,15.03
2023-05-07T01:44:51.384Z,15.80
2023-05-07T01:47:18.879Z,11.93
2023-05-07T01:49:46.470Z,14.00
2023-05-07T01:52:13.823Z,14.63
2023-05-07T01:54:41.246Z,14.17
2023-05-07T01:57:10.171Z,15.27
2023-05-07T01:59:37.992Z,13.83
2023-05-07T02:02:05.705Z,18.37
2023-05-07T02:04:34.275Z,16.33
2023-05-07T02:07:02.229Z,16.60
2023-05-07T02:09:31.183Z,16.33
2023-05-07T02:11:58.997Z,17.73
2023-05-07T02:14:27.945Z,17.73
2023-05-07T02:16:55.810Z,17.60
2023-05-07T02:19:23.838Z,19.77
2023-05-07T02:21:51.380Z,17.77
2023-05-07T02:24:19.010Z,17.33
2023-05-07T02:26:46.430Z,18.50
2023-05-07T02:29:13.853Z,18.57
2023-05-07T02:31:43.244Z,17.00
2023-05-07T02:34:11.849Z,19.13
2023-05-07T02:36:39.522Z,21.00
2023-05-07T02:39:11.965Z,17.67
2023-05-07T02:41:39.457Z,19.40
2023-05-07T02:44:07.006Z,19.47
2023-05-07T02:46:35.185Z,19.60
2023-05-07T02:49:09.264Z,18.47
2023-05-07T02:51:36.661Z,18.67
2023-05-07T02:54:09.137Z,17.53
2023-05-07T02:56:36.671Z,20.47
2023-05-07T02:59:04.035Z,18.30
2023-05-07T03:01:35.274Z,16.10
2023-05-07T03:04:05.700Z,17.70
2023-05-07T03:06:34.846Z,18.47
2023-05-07T03:09:02.239Z,18.53
2023-05-07T03:11:31.554Z,20.53
2023-05-07T03:13:58.942Z,17.03
2023-05-07T03:16:27.093Z,19.90
2023-05-07T03:18:55.146Z,19.37
2023-05-07T03:21:22.591Z,20.33
2023-05-07T03:23:51.902Z,17.33
2023-05-07T03:26:19.358Z,18.37
2023-05-07T03:28:46.746Z,18.17
2023-05-07T03:31:16.658Z,17.63
2023-05-07T03:33:51.872Z,18.27
2023-05-07T03:36:19.455Z,17.07
2023-05-07T03:38:46.870Z,17.50
2023-05-07T03:41:21.240Z,18.13
2023-05-07T03:43:48.638Z,18.90
2023-05-07T03:46:16.274Z,18.37
2023-05-07T03:48:44.406Z,17.60
2023-05-07T03:51:13.805Z,19.30
2023-05-07T03:53:41.477Z,17.33
2023-05-07T03:56:09.012Z,21.07
2023-05-07T03:58:40.877Z,20.13
2023-05-07T04:01:10.940Z,20.63
2023-05-07T04:03:38.406Z,20.77
2023-05-07T04:06:06.093Z,20.63
2023-05-07T04:08:35.865Z,20.43
2023-05-07T04:11:04.505Z,23.77
2023-05-07T04:13:33.955Z,22.33
2023-05-07T04:16:05.242Z,19.47
2023-05-07T04:18:34.976Z,20.67
2023-05-07T04:21:02.597Z,20.63
2023-05-07T04:23:29.970Z,24.10
2023-05-07T04:25:59.794Z,20.67
2023-05-07T04:28:37.914Z,20.57
2023-05-07T04:31:07.019Z,20.53
2023-05-07T04:33:36.414Z,18.57
2023-05-07T04:36:05.423Z,19.50
2023-05-07T04:38:38.264Z,18.23
2023-05-07T04:41:07.068Z,16.57
2023-05-07T04:43:38.567Z,19.10
2023-05-07T04:46:07.929Z,17.63
2023-05-07T04:48:36.173Z,16.43
2023-05-07T04:51:07.355Z,14.57
2023-05-07T04:53:34.735Z,12.87
2023-05-07T04:56:02.113Z,13.10
2023-05-07T04:58:36.714Z,13.97
2023-05-07T05:01:04.554Z,12.37
2023-05-07T05:03:33.511Z,12.13
2023-05-07T05:06:01.183Z,12.50
2023-05-07T05:08:32.895Z,11.97
2023-05-07T05:11:02.450Z,12.23
2023-05-07T05:13:31.261Z,13.60
2023-05-07T05:15:59.413Z,11.03
2023-05-07T05:18:28.006Z,11.53
2023-05-07T05:20:56.745Z,11.50
2023-05-07T05:23:25.045Z,11.27
2023-05-07T05:25:56.955Z,12.37
2023-05-07T05:28:24.506Z,11.10
2023-05-07T05:30:52.033Z,11.20
2023-05-07T05:33:20.485Z,12.30
2023-05-07T05:35:47.875Z,10.70
2023-05-07T05:38:16.602Z,9.97
2023-05-07T05:40:43.992Z,12.97
2023-05-07T05:43:11.705Z,12.53
2023-05-07T05:45:39.823Z,11.90
2023-05-07T05:48:07.473Z,12.97
2023-05-07T05:50:36.684Z,11.23
2023-05-07T05:53:05.557Z,11.77
2023-05-07T05:55:34.487Z,13.40
2023-05-07T05:58:02.074Z,10.50
2023-05-07T06:00:31.489Z,11.47
2023-05-07T06:03:03.712Z,12.60
2023-05-07T06:05:31.175Z,11.53
2023-05-07T06:07:59.044Z,13.00
2023-05-07T06:10:31.199Z,11.17
2023-05-07T06:13:00.004Z,11.77
2023-05-07T06:15:28.741Z,11.63
2023-05-07T06:17:58.324Z,11.97
2023-05-07T06:20:26.234Z,11.30
2023-05-07T06:22:53.858Z,10.73
2023-05-07T06:25:21.348Z,10.03
2023-05-07T06:27:49.290Z,11.37
2023-05-07T06:30:18.403Z,11.40
2023-05-07T06:32:45.915Z,11.67
2023-05-07T06:35:14.728Z,12.67
2023-05-07T06:37:43.501Z,11.73
2023-05-07T06:40:16.526Z,11.67
2023-05-07T06:42:45.751Z,10.23
2023-05-07T06:45:37.244Z,11.23
2023-05-07T06:48:06.294Z,12.27
2023-05-07T06:50:41.112Z,11.97
2023-05-07T06:53:08.660Z,14.30
2023-05-07T06:55:39.027Z,11.57
2023-05-07T06:58:07.437Z,14.30
2023-05-07T07:00:35.991Z,15.47
2023-05-07T07:03:04.882Z,20.13
2023-05-07T07:05:32.381Z,39.20
2023-05-07T07:08:01.066Z,20.30
2023-05-07T07:10:28.606Z,32.90
2023-05-07T07:12:57.191Z,19.17
2023-05-07T07:15:25.989Z,14.73
2023-05-07T07:17:54.836Z,17.37
2023-05-07T07:20:25.443Z,13.70
2023-05-07T07:22:53.291Z,12.30
2023-05-07T07:25:20.700Z,11.47
2023-05-07T07:27:49.714Z,9.90
2023-05-07T07:30:17.635Z,10.53
2023-05-07T07:32:48.372Z,7.20
2023-05-07T07:35:16.985Z,8.30
2023-05-07T07:37:46.815Z,8.63
2023-05-07T07:40:16.009Z,8.00
2023-05-07T07:42:44.205Z,7.40
2023-05-07T07:45:13.333Z,5.57
2023-05-07T07:47:45.351Z,6.87
2023-05-07T07:50:19.374Z,7.20
2023-05-07T07:52:54.126Z,7.93
2023-05-07T07:55:23.940Z,5.80
2023-05-07T07:57:53.691Z,5.00
2023-05-07T08:00:22.050Z,6.47
2023-05-07T08:02:54.096Z,4.90
2023-05-07T08:05:27.204Z,6.40
2023-05-07T08:07:57.034Z,6.77
2023-05-07T08:10:29.055Z,6.17
2023-05-07T08:13:04.810Z,5.00
2023-05-07T08:15:32.576Z,6.00
2023-05-07T08:18:01.269Z,7.27
2023-05-07T08:20:29.981Z,8.80
2023-05-07T08:22:59.719Z,8.53
2023-05-07T08:25:28.362Z,6.77
2023-05-07T08:27:55.950Z,9.30
2023-05-07T08:30:23.737Z,7.70
2023-05-07T08:32:52.244Z,8.87
2023-05-07T08:35:19.762Z,7.87
2023-05-07T08:37:49.102Z,8.23
2023-05-07T08:40:20.607Z,6.57
2023-05-07T08:42:51.067Z,6.80
2023-05-07T08:45:19.451Z,7.67
2023-05-07T08:47:48.904Z,7.23
2023-05-07T08:50:18.864Z,6.83
2023-05-07T08:52:46.600Z,7.20
2023-05-07T08:55:14.893Z,8.27
2023-05-07T08:57:44.457Z,7.47
2023-05-07T09:00:13.497Z,6.80
2023-05-07T09:02:42.150Z,6.43
2023-05-07T09:05:10.651Z,5.53
2023-05-07T09:07:39.451Z,4.67
2023-05-07T09:10:09.182Z,4.57
2023-05-07T09:12:40.168Z,4.87
2023-05-07T09:15:11.560Z,7.43
2023-05-07T09:17:39.911Z,5.10
2023-05-07T09:20:10.790Z,6.07
2023-05-07T09:22:39.818Z,6.93
2023-05-07T09:25:11.433Z,5.83
2023-05-07T09:27:40.702Z,5.50
2023-05-07T09:30:09.090Z,6.67
2023-05-07T09:32:40.006Z,5.90
2023-05-07T09:35:16.792Z,5.90
2023-05-07T09:37:44.641Z,6.50
2023-05-07T09:40:21.873Z,8.50
2023-05-07T09:42:50.483Z,19.43
2023-05-07T09:45:18.364Z,23.97
2023-05-07T09:47:48.996Z,23.10
2023-05-07T09:50:17.789Z,36.87
2023-05-07T09:52:46.590Z,20.43
2023-05-07T09:55:14.238Z,7.17
2023-05-07T09:57:41.985Z,6.20
2023-05-07T10:00:11.766Z,6.90
2023-05-07T10:02:50.860Z,7.13
2023-05-07T10:05:21.608Z,7.57
2023-05-07T10:07:50.641Z,4.73
2023-05-07T10:10:19.562Z,6.03
2023-05-07T10:12:48.403Z,10.03
2023-05-07T10:15:25.555Z,6.23
2023-05-07T10:17:57.600Z,5.60
2023-05-07T10:20:27.169Z,5.97
2023-05-07T10:22:57.768Z,4.80
2023-05-07T10:25:31.743Z,6.97
2023-05-07T10:28:06.834Z,5.63
2023-05-07T10:30:40.798Z,6.57
2023-05-07T10:33:14.499Z,7.07
2023-05-07T10:35:45.525Z,6.57
2023-05-07T10:38:14.363Z,6.57
2023-05-07T10:40:47.834Z,5.30
2023-05-07T10:43:17.759Z,6.83
2023-05-07T10:46:09.781Z,7.87
2023-05-07T10:48:58.542Z,5.80
2023-05-07T10:51:27.658Z,5.77
2023-05-07T10:54:21.665Z,5.17
2023-05-07T10:57:19.474Z,5.63
2023-05-07T10:59:46.888Z,5.80
2023-05-07T11:02:23.235Z,5.33
2023-05-07T11:05:19.738Z,5.97
2023-05-07T11:07:59.527Z,5.50
2023-05-07T11:10:52.405Z,5.43
2023-05-07T11:13:43.581Z,5.30
2023-05-07T11:16:22.976Z,5.43
2023-05-07T11:18:58.982Z,6.23
2023-05-07T11:21:37.076Z,5.93
2023-05-07T11:24:26.442Z,5.00
2023-05-07T11:26:59.437Z,5.57
2023-05-07T11:29:28.516Z,5.23
2023-05-07T11:32:04.472Z,6.30
2023-05-07T11:34:37.660Z,6.77
2023-05-07T11:37:05.841Z,5.83
2023-05-07T11:39:50.715Z,6.67
2023-05-07T11:42:27.561Z,6.90
2023-05-07T11:44:54.938Z,5.30
2023-05-07T11:47:22.694Z,5.80
2023-05-07T11:49:50.436Z,5.40
2023-05-07T11:52:18.091Z,7.53
2023-05-07T11:54:51.781Z,5.87
2023-05-07T11:57:19.162Z,5.87
2023-05-07T11:59:48.477Z,5.87
2023-05-07T12:02:15.981Z,6.03
2023-05-07T12:04:43.480Z,6.33
2023-05-07T12:07:13.351Z,6.60
2023-05-07T12:09:40.807Z,6.77
2023-05-07T12:12:10.050Z,6.07
2023-05-07T12:14:39.433Z,5.30
2023-05-07T12:17:07.768Z,5.23
2023-05-07T12:19:35.786Z,8.20
2023-05-07T12:22:03.397Z,5.83
2023-05-07T12:24:30.993Z,6.77
2023-05-07T12:26:58.478Z,6.00
2023-05-07T12:29:27.776Z,6.13
2023-05-07T12:31:56.255Z,5.43
2023-05-07T12:34:24.647Z,5.50
2023-05-07T12:36:52.093Z,5.50
2023-05-07T12:39:19.465Z,6.33
2023-05-07T12:41:56.134Z,6.13
2023-05-07T12:44:24.166Z,5.60
2023-05-07T12:46:53.157Z,5.73
2023-05-07T12:49:23.156Z,6.10
2023-05-07T12:51:52.472Z,6.40
2023-05-07T12:54:29.581Z,6.40
2023-05-07T12:57:02.389Z,6.50
2023-05-07T12:59:32.907Z,5.73
2023-05-07T13:02:01.875Z,6.43
2023-05-07T13:04:29.275Z,7.07
2023-05-07T13:06:57.208Z,5.70
2023-05-07T13:09:24.587Z,5.70
2023-05-07T13:11:52.002Z,5.93
2023-05-07T13:14:22.011Z,6.30
2023-05-07T13:16:49.629Z,7.40
2023-05-07T13:19:18.440Z,4.80
2023-05-07T13:21:45.827Z,5.93
2023-05-07T13:24:13.206Z,5.17
2023-05-07T13:26:40.587Z,5.73
2023-05-07T13:29:07.951Z,4.87
2023-05-07T13:31:36.638Z,7.90
2023-05-07T13:34:04.023Z,7.23
2023-05-07T13:36:33.997Z,8.03
2023-05-07T13:39:01.550Z,6.00
2023-05-07T13:41:28.958Z,7.30
2023-05-07T13:43:56.714Z,6.33
2023-05-07T13:46:24.224Z,6.13
2023-05-07T13:48:51.998Z,6.27
2023-05-07T13:51:19.381Z,6.50
2023-05-07T13:53:48.199Z,5.53
2023-05-07T13:56:16.306Z,5.97
2023-05-07T13:58:52.383Z,5.97
2023-05-07T14:01:26.839Z,5.53
2023-05-07T14:03:54.401Z,5.57
2023-05-07T14:06:22.800Z,5.70
2023-05-07T14:08:52.209Z,4.80
2023-05-07T14:11:19.998Z,5.10
2023-05-07T14:13:47.455Z,4.57
2023-05-07T14:16:14.894Z,6.53
2023-05-07T14:18:42.255Z,6.17
2023-05-07T14:21:10.685Z,6.60
2023-05-07T14:23:38.069Z,7.23
2023-05-07T14:26:06.813Z,6.27
2023-05-07T14:28:34.200Z,5.47
2023-05-07T14:31:02.121Z,4.83
2023-05-07T14:33:29.794Z,5.77
2023-05-07T14:35:57.135Z,4.60
2023-05-07T14:38:24.736Z,5.13
2023-05-07T14:40:53.132Z,4.67
2023-05-07T14:43:21.784Z,5.43
2023-05-07T14:45:51.168Z,4.90
2023-05-07T14:48:21.270Z,3.93
2023-05-07T14:50:48.919Z,5.53
2023-05-07T14:53:16.882Z,5.93
2023-05-07T14:55:44.243Z,4.70
2023-05-07T14:58:12.154Z,5.70
2023-05-07T15:00:41.106Z,5.70
2023-05-07T15:03:09.584Z,5.27
2023-05-07T15:05:37.405Z,4.00
2023-05-07T15:08:04.794Z,4.40
2023-05-07T15:10:32.417Z,4.27
2023-05-07T15:13:00.863Z,3.77
2023-05-07T15:15:28.499Z,4.70
2023-05-07T15:17:57.909Z,5.20
2023-05-07T15:20:25.323Z,4.67
2023-05-07T15:22:52.666Z,4.33
2023-05-07T15:25:20.063Z,4.33
2023-05-07T15:27:47.476Z,8.40
2023-05-07T15:30:15.483Z,4.50
2023-05-07T15:32:42.949Z,3.70
2023-05-07T15:35:12.083Z,4.00
2023-05-07T15:37:39.658Z,4.57
2023-05-07T15:40:08.315Z,3.77
2023-05-07T15:42:35.749Z,3.57
2023-05-07T15:45:03.123Z,5.07
2023-05-07T15:47:34.190Z,4.70
2023-05-07T15:50:01.733Z,3.57
2023-05-07T15:52:30.455Z,7.00
2023-05-07T15:54:58.030Z,5.30
2023-05-07T15:57:25.634Z,4.10
2023-05-07T15:59:53.046Z,6.30
2023-05-07T16:02:20.507Z,4.43
2023-05-07T16:04:47.941Z,4.53
2023-05-07T16:07:15.501Z,4.77
2023-05-07T16:09:44.275Z,4.57
2023-05-07T16:12:11.808Z,3.83
2023-05-07T16:14:40.110Z,7.10
2023-05-07T16:17:07.621Z,5.33
2023-05-07T16:19:35.044Z,5.30
2023-05-07T16:22:02.687Z,4.40
2023-05-07T16:24:30.150Z,5.83
2023-05-07T16:26:59.922Z,5.23
2023-05-07T16:29:27.279Z,9.40
2023-05-07T16:31:55.157Z,4.70
2023-05-07T16:34:23.269Z,4.63
2023-05-07T16:36:51.056Z,4.43
2023-05-07T16:39:18.763Z,4.23
2023-05-07T16:41:48.652Z,5.03
2023-05-07T16:44:17.481Z,4.63
2023-05-07T16:46:44.952Z,4.50
2023-05-07T16:49:12.589Z,4.97
2023-05-07T16:51:43.274Z,6.53
2023-05-07T16:54:10.822Z,4.73
2023-05-07T16:56:39.125Z,5.97
2023-05-07T16:59:07.282Z,4.97
2023-05-07T17:01:36.020Z,5.27
2023-05-07T17:04:03.552Z,4.87
2023-05-07T17:06:31.651Z,5.10
2023-05-07T17:08:58.988Z,5.10
2023-05-07T17:11:30.915Z,5.07
2023-05-07T17:13:58.327Z,5.27
2023-05-07T17:16:26.104Z,5.13
2023-05-07T17:18:54.836Z,6.20
2023-05-07T17:21:22.193Z,5.80
2023-05-07T17:23:49.542Z,5.37
2023-05-07T17:26:17.503Z,6.20
2023-05-07T17:28:44.856Z,6.67
2023-05-07T17:31:12.206Z,5.53
2023-05-07T17:33:39.544Z,6.03
2023-05-07T17:36:08.696Z,7.13
2023-05-07T17:38:36.187Z,5.67
2023-05-07T17:41:03.838Z,5.50
2023-05-07T17:43:31.266Z,6.03
2023-05-07T17:45:58.895Z,5.37
2023-05-07T17:48:26.286Z,6.57
2023-05-07T17:50:53.620Z,7.33
2023-05-07T17:53:24.579Z,5.83
2023-05-07T17:55:53.484Z,5.70
2023-05-07T17:58:21.486Z,7.60
2023-05-07T18:00:49.039Z,6.53
2023-05-07T18:03:16.524Z,5.90
2023-05-07T18:05:44.560Z,6.23
2023-05-07T18:08:11.962Z,5.90
2023-05-07T18:10:40.702Z,5.90
2023-05-07T18:13:08.092Z,6.93
2023-05-07T18:15:35.645Z,5.30
2023-05-07T18:18:03.061Z,7.47
2023-05-07T18:20:30.502Z,6.83
2023-05-07T18:22:57.937Z,7.57
2023-05-07T18:25:25.569Z,7.17
2023-05-07T18:27:54.561Z,8.70
2023-05-07T18:30:23.037Z,5.63
2023-05-07T18:32:50.506Z,6.53
2023-05-07T18:35:17.974Z,7.93
2023-05-07T18:37:45.317Z,7.33
2023-05-07T18:40:13.351Z,5.87
2023-05-07T18:42:40.905Z,6.97
2023-05-07T18:45:10.150Z,7.57
2023-05-07T18:47:37.500Z,6.73
2023-05-07T18:50:06.274Z,8.27
2023-05-07T18:52:36.457Z,5.93
2023-05-07T18:55:03.945Z,5.60
2023-05-07T18:57:31.346Z,7.77
2023-05-07T18:59:58.879Z,7.80
2023-05-07T19:02:27.577Z,10.43
2023-05-07T19:04:55.306Z,7.60
2023-05-07T19:07:22.978Z,6.10
2023-05-07T19:10:03.605Z,7.20
2023-05-07T19:12:32.361Z,7.23
2023-05-07T19:14:59.916Z,7.90
2023-05-07T19:17:28.748Z,9.20
2023-05-07T19:19:56.146Z,7.17
2023-05-07T19:22:23.537Z,6.23
2023-05-07T19:24:50.966Z,5.60
2023-05-07T19:27:18.330Z,7.37
2023-05-07T19:29:45.974Z,6.47
2023-05-07T19:32:13.321Z,6.93
2023-05-07T19:34:43.035Z,6.27
2023-05-07T19:37:10.416Z,6.23
2023-05-07T19:39:38.152Z,6.67
2023-05-07T19:42:05.690Z,6.97
2023-05-07T19:44:33.117Z,8.60
2023-05-07T19:47:02.316Z,9.93
2023-05-07T19:49:29.721Z,7.43
2023-05-07T19:51:58.762Z,8.00
2023-05-07T19:54:26.406Z,8.50
2023-05-07T19:56:53.916Z,7.73
2023-05-07T19:59:21.265Z,8.53
2023-05-07T20:01:48.705Z,6.67
2023-05-07T20:04:16.102Z,8.67
2023-05-07T20:06:43.515Z,7.87
2023-05-07T20:09:12.914Z,7.23
2023-05-07T20:11:40.370Z,7.67
2023-05-07T20:14:09.924Z,7.20
2023-05-07T20:16:37.666Z,7.63
2023-05-07T20:19:05.425Z,8.90
2023-05-07T20:21:32.792Z,7.93
2023-05-07T20:24:00.156Z,7.63
2023-05-07T20:26:28.809Z,7.87
2023-05-07T20:28:56.147Z,6.70
2023-05-07T20:31:23.627Z,8.50
2023-05-07T20:33:51.063Z,6.93
2023-05-07T20:36:18.527Z,6.93
2023-05-07T20:38:46.141Z,6.60
2023-05-07T20:41:14.280Z,7.60
2023-05-07T20:43:43.440Z,6.37
2023-05-07T20:46:10.936Z,7.20
2023-05-07T20:48:38.369Z,8.50
2023-05-07T20:51:05.732Z,9.03
2023-05-07T20:53:33.199Z,6.07
2023-05-07T20:56:00.714Z,8.87
2023-05-07T20:58:28.893Z,7.77
2023-05-07T21:00:57.788Z,8.37
2023-05-07T21:03:25.240Z,8.63
2023-05-07T21:05:53.092Z,7.67
2023-05-07T21:08:20.754Z,6.97
2023-05-07T21:10:48.376Z,6.53
2023-05-07T21:13:16.218Z,8.17
2023-05-07T21:15:43.672Z,5.77
2023-05-07T21:18:12.456Z,6.90
2023-05-07T21:20:40.057Z,8.93
2023-05-07T21:23:07.498Z,9.77
2023-05-07T21:25:37.488Z,6.00
2023-05-07T21:28:06.046Z,5.93
2023-05-07T21:30:33.592Z,7.00
2023-05-07T21:33:01.079Z,6.30
2023-05-07T21:35:29.797Z,5.73
2023-05-07T21:37:57.161Z,7.47
2023-05-07T21:40:24.549Z,6.97
2023-05-07T21:42:52.179Z,7.97
2023-05-07T21:45:19.753Z,9.17
2023-05-07T21:47:47.236Z,5.60
2023-05-07T21:50:15.275Z,6.53
2023-05-07T21:52:44.363Z,5.60
2023-05-07T21:55:12.073Z,5.60
2023-05-07T21:57:42.009Z,5.17
2023-05-07T22:00:12.263Z,5.40
2023-05-07T22:02:39.994Z,6.53
2023-05-07T22:05:07.550Z,6.00
2023-05-07T22:07:34.942Z,5.83
2023-05-07T22:10:03.668Z,6.83
2023-05-07T22:12:31.031Z,6.17
2023-05-07T22:14:58.410Z,7.17
2023-05-07T22:17:25.813Z,6.30
2023-05-07T22:19:53.263Z,5.20
2023-05-07T22:22:20.604Z,6.13
2023-05-07T22:24:48.042Z,5.43
2023-05-07T22:27:16.700Z,9.80
2023-05-07T22:29:44.059Z,6.07
2023-05-07T22:32:12.678Z,5.47
2023-05-07T22:34:40.542Z,8.00
2023-05-07T22:37:07.885Z,5.37
2023-05-07T22:39:35.621Z,4.70
2023-05-07T22:42:03.179Z,6.97
2023-05-07T22:44:31.882Z,4.77
2023-05-07T22:46:59.271Z,5.80
2023-05-07T22:49:26.618Z,5.80
2023-05-07T22:51:54.041Z,5.13
2023-05-07T22:54:22.700Z,6.37
2023-05-07T22:56:52.542Z,5.47
2023-05-07T22:59:20.174Z,6.20
2023-05-07T23:01:49.482Z,8.50
2023-05-07T23:04:16.961Z,6.50
2023-05-07T23:06:44.302Z,5.23
2023-05-07T23:09:12.648Z,4.57
2023-05-07T23:11:40.359Z,5.70
2023-05-07T23:14:08.291Z,5.33
2023-05-07T23:16:35.837Z,6.70
2023-05-07T23:19:04.513Z,6.27
2023-05-07T23:21:31.862Z,4.47
2023-05-07T23:23:59.274Z,5.20
2023-05-07T23:26:27.686Z,4.97
2023-05-07T23:28:55.045Z,4.70
2023-05-07T23:31:22.407Z,5.90
2023-05-07T23:33:49.838Z,4.93
2023-05-07T23:36:18.610Z,5.67
2023-05-07T23:38:46.472Z,5.07
2023-05-07T23:41:13.864Z,4.90
2023-05-07T23:43:41.255Z,5.10
2023-05-07T23:46:08.644Z,5.77
2023-05-07T23:48:36.092Z,5.50
2023-05-07T23:51:03.423Z,6.20
2023-05-07T23:53:32.064Z,8.00
2023-05-07T23:55:59.601Z,5.67
2023-05-07T23:58:27.412Z,6.47
